Gravette, AR (72736)

5:11 AM CDT on August 27, 2016 (GMT -0500)
FryeComp -2 Mi/S SWC | | Change Station

Elev 1138 ft 36.48 °N, 94.61 °W | Updated 14 hours ago

Mostly Cloudy
Mostly Cloudy
71 °F
Feels Like 71 °F
N
1
Wind Variable Wind from South
Gusts mph

Today
High -- | Low -- °F
--% Chance of Precip.
Yesterday
High -- | Low -- °F
Precip. -- in
Pressure 30.01 in
Visibility 9.0 miles
Clouds Clear
Dew Point 68 °F
Humidity 90%
Rainfall in
Snow Depth Not available.
6:45 AM 7:52 PM
Waning Crescent, 26% visible
METAR KXNA 270953Z AUTO 00000KT 9SM CLR 20/20 A3005 RMK AO2 SLP163 T02000200
Pressure 30.01 in
Visibility 9.0 miles
Clouds Clear
Dew Point 68 °F
Humidity 90%
Rainfall in
Snow Depth Not available.
6:45 AM 7:52 PM
Waning Crescent, 26% visible
METAR KXNA 270953Z AUTO 00000KT 9SM CLR 20/20 A3005 RMK AO2 SLP163 T02000200

10-Day Weather Forecast

Almanac

Astronomy

Aug. 27, 2016 Rise Set
Actual Time
Civil Twilight
Nautical Twilight
Astronomical Twilight
Moon
Length of Visible Light
Length of Day
Tomorrow will be .
, % of the Moon is Illuminated

Today's Extremes

State Highs State Lows

Community

WunderPhotos

Upload Photos

1,935,313 photos uploaded!

WunderBlog® & News

Nearby

Air Quality

  Air Quality AQ Index Pollutant
Not available.

Snow Depth

Station Depth Elevation

Earthquake Activity

City Distance Mag. Time & Date
Minimum magnitude displayed is 2.5.

Coastal Water Temperatures

Place Temperature

Stations

Nearby Weather Stations

Station Location Temp. Windchill Dew Point Humidity Wind Precip. Elev Updated Type
                   

Watches & Warnings

There are currently no watches in effect.